sensor_id;sensor_type;location;lat;lon;timestamp;pressure;altitude;pressure_sealevel;temperature;humidity
48015;BME280;33780;51.034;7.120;2022-08-02T00:02:03;101089.22;;;19.64;60.72
48015;BME280;33780;51.034;7.120;2022-08-02T00:04:29;101090.63;;;19.59;60.93
48015;BME280;33780;51.034;7.120;2022-08-02T00:06:54;101094.56;;;19.57;60.75
48015;BME280;33780;51.034;7.120;2022-08-02T00:09:20;101092.00;;;19.55;60.89
48015;BME280;33780;51.034;7.120;2022-08-02T00:11:45;101087.75;;;19.53;60.86
48015;BME280;33780;51.034;7.120;2022-08-02T00:14:10;101087.94;;;19.51;60.65
48015;BME280;33780;51.034;7.120;2022-08-02T00:16:36;101094.56;;;19.49;60.69
48015;BME280;33780;51.034;7.120;2022-08-02T00:19:02;101092.22;;;19.46;60.90
48015;BME280;33780;51.034;7.120;2022-08-02T00:21:27;101090.72;;;19.43;61.21
48015;BME280;33780;51.034;7.120;2022-08-02T00:23:53;101093.78;;;19.40;61.60
48015;BME280;33780;51.034;7.120;2022-08-02T00:26:18;101096.84;;;19.37;61.30
48015;BME280;33780;51.034;7.120;2022-08-02T00:28:43;101097.38;;;19.32;61.30
48015;BME280;33780;51.034;7.120;2022-08-02T00:31:09;101098.41;;;19.31;61.64
48015;BME280;33780;51.034;7.120;2022-08-02T00:33:34;101095.88;;;19.30;61.40
48015;BME280;33780;51.034;7.120;2022-08-02T00:35:59;101095.22;;;19.28;60.90
48015;BME280;33780;51.034;7.120;2022-08-02T00:38:25;101099.81;;;19.27;61.17
48015;BME280;33780;51.034;7.120;2022-08-02T00:40:51;101101.84;;;19.25;61.29
48015;BME280;33780;51.034;7.120;2022-08-02T00:43:17;101093.22;;;19.22;61.45
48015;BME280;33780;51.034;7.120;2022-08-02T00:45:43;101090.00;;;19.18;61.70
48015;BME280;33780;51.034;7.120;2022-08-02T00:48:10;101087.00;;;19.13;61.99
48015;BME280;33780;51.034;7.120;2022-08-02T00:50:37;101084.47;;;19.12;61.81
48015;BME280;33780;51.034;7.120;2022-08-02T00:53:03;101090.91;;;19.11;61.82
48015;BME280;33780;51.034;7.120;2022-08-02T00:55:29;101077.34;;;19.11;61.83
48015;BME280;33780;51.034;7.120;2022-08-02T00:57:55;101081.94;;;19.10;61.70
48015;BME280;33780;51.034;7.120;2022-08-02T01:00:20;101073.97;;;19.09;61.80
48015;BME280;33780;51.034;7.120;2022-08-02T01:02:46;101080.59;;;19.06;61.83
48015;BME280;33780;51.034;7.120;2022-08-02T01:05:12;101074.50;;;19.04;61.85
48015;BME280;33780;51.034;7.120;2022-08-02T01:07:38;101081.13;;;19.01;61.97
48015;BME280;33780;51.034;7.120;2022-08-02T01:10:03;101088.41;;;19.01;62.05
48015;BME280;33780;51.034;7.120;2022-08-02T01:12:29;101088.78;;;18.98;61.78
48015;BME280;33780;51.034;7.120;2022-08-02T01:14:58;101088.94;;;18.96;61.91
48015;BME280;33780;51.034;7.120;2022-08-02T01:18:02;101083.88;;;18.93;62.42
48015;BME280;33780;51.034;7.120;2022-08-02T01:31:30;101084.94;;;18.84;62.04
48015;BME280;33780;51.034;7.120;2022-08-02T01:34:05;101085.28;;;18.81;62.07
48015;BME280;33780;51.034;7.120;2022-08-02T01:36:37;101082.09;;;18.78;61.97
48015;BME280;33780;51.034;7.120;2022-08-02T01:39:05;101082.28;;;18.76;61.96
48015;BME280;33780;51.034;7.120;2022-08-02T01:41:33;101087.03;;;18.74;62.03
48015;BME280;33780;51.034;7.120;2022-08-02T01:44:00;101084.66;;;18.71;61.94
48015;BME280;33780;51.034;7.120;2022-08-02T01:46:29;101075.03;;;18.68;61.97
48015;BME280;33780;51.034;7.120;2022-08-02T01:48:57;101071.63;;;18.66;62.29
48015;BME280;33780;51.034;7.120;2022-08-02T01:51:24;101066.38;;;18.65;62.25
48015;BME280;33780;51.034;7.120;2022-08-02T01:54:11;101075.53;;;18.64;62.36
48015;BME280;33780;51.034;7.120;2022-08-02T01:56:39;101076.56;;;18.63;62.26
48015;BME280;33780;51.034;7.120;2022-08-02T01:59:10;101070.44;;;18.61;62.23
48015;BME280;33780;51.034;7.120;2022-08-02T02:01:38;101083.31;;;18.59;62.16
48015;BME280;33780;51.034;7.120;2022-08-02T02:04:07;101078.06;;;18.57;62.17
48015;BME280;33780;51.034;7.120;2022-08-02T02:06:33;101078.59;;;18.53;61.97
48015;BME280;33780;51.034;7.120;2022-08-02T02:08:59;101078.78;;;18.51;62.37
48015;BME280;33780;51.034;7.120;2022-08-02T02:11:26;101073.53;;;18.50;62.56
48015;BME280;33780;51.034;7.120;2022-08-02T02:13:51;101064.88;;;18.46;62.35
48015;BME280;33780;51.034;7.120;2022-08-02T02:16:18;101068.78;;;18.43;62.48
48015;BME280;33780;51.034;7.120;2022-08-02T02:18:45;101063.38;;;18.43;62.46
48015;BME280;33780;51.034;7.120;2022-08-02T02:21:13;101061.03;;;18.40;62.33
48015;BME280;33780;51.034;7.120;2022-08-02T02:23:38;101064.94;;;18.38;62.44
48015;BME280;33780;51.034;7.120;2022-08-02T02:26:04;101058.00;;;18.35;62.55
48015;BME280;33780;51.034;7.120;2022-08-02T02:28:31;101059.19;;;18.33;62.70
48015;BME280;33780;51.034;7.120;2022-08-02T02:31:13;101057.81;;;18.29;62.49
48015;BME280;33780;51.034;7.120;2022-08-02T02:33:46;101061.72;;;18.26;62.64
48015;BME280;33780;51.034;7.120;2022-08-02T02:36:12;101056.16;;;18.20;62.74
48015;BME280;33780;51.034;7.120;2022-08-02T02:38:40;101057.19;;;18.19;62.50
48015;BME280;33780;51.034;7.120;2022-08-02T02:41:06;101052.97;;;18.16;62.64
48015;BME280;33780;51.034;7.120;2022-08-02T02:43:33;101052.97;;;18.16;62.49
48015;BME280;33780;51.034;7.120;2022-08-02T02:46:01;101046.03;;;18.14;62.64
48015;BME280;33780;51.034;7.120;2022-08-02T02:48:28;101051.78;;;18.10;62.88
48015;BME280;33780;51.034;7.120;2022-08-02T02:50:54;101054.66;;;18.09;62.67
48015;BME280;33780;51.034;7.120;2022-08-02T02:53:21;101054.84;;;18.07;62.60
48015;BME280;33780;51.034;7.120;2022-08-02T02:55:47;101052.31;;;18.06;62.75
48015;BME280;33780;51.034;7.120;2022-08-02T02:58:13;101057.91;;;18.04;62.71
48015;BME280;33780;51.034;7.120;2022-08-02T03:00:42;101061.78;;;18.02;62.71
48015;BME280;33780;51.034;7.120;2022-08-02T03:03:28;101054.88;;;17.99;62.74
48015;BME280;33780;51.034;7.120;2022-08-02T03:05:53;101056.91;;;17.97;62.67
48015;BME280;33780;51.034;7.120;2022-08-02T03:08:19;101053.50;;;17.95;63.13
48015;BME280;33780;51.034;7.120;2022-08-02T03:10:44;101049.25;;;17.93;62.80
48015;BME280;33780;51.034;7.120;2022-08-02T03:13:11;101041.50;;;17.90;63.10
48015;BME280;33780;51.034;7.120;2022-08-02T03:15:37;101050.63;;;17.89;62.93
48015;BME280;33780;51.034;7.120;2022-08-02T03:18:04;101048.09;;;17.87;62.92
48015;BME280;33780;51.034;7.120;2022-08-02T03:20:31;101051.16;;;17.84;62.91
48015;BME280;33780;51.034;7.120;2022-08-02T03:22:57;101046.94;;;17.81;62.97
48015;BME280;33780;51.034;7.120;2022-08-02T03:25:22;101040.84;;;17.79;62.84
48015;BME280;33780;51.034;7.120;2022-08-02T03:27:47;101043.03;;;17.76;62.99
48015;BME280;33780;51.034;7.120;2022-08-02T03:30:13;101043.38;;;17.73;63.25
48015;BME280;33780;51.034;7.120;2022-08-02T03:32:40;101042.88;;;17.69;63.02
48015;BME280;33780;51.034;7.120;2022-08-02T03:35:09;101040.34;;;17.68;63.02
48015;BME280;33780;51.034;7.120;2022-08-02T03:37:36;101040.47;;;17.66;62.90
48015;BME280;33780;51.034;7.120;2022-08-02T03:40:03;101041.66;;;17.64;63.15
48015;BME280;33780;51.034;7.120;2022-08-02T03:42:30;101031.19;;;17.61;63.22
48015;BME280;33780;51.034;7.120;2022-08-02T03:44:55;101040.47;;;17.58;63.35
48015;BME280;33780;51.034;7.120;2022-08-02T03:47:22;101040.63;;;17.57;63.54
48015;BME280;33780;51.034;7.120;2022-08-02T03:49:49;101038.09;;;17.55;63.66
48015;BME280;33780;51.034;7.120;2022-08-02T03:52:15;101041.81;;;17.54;63.32
48015;BME280;33780;51.034;7.120;2022-08-02T03:54:41;101041.16;;;17.52;63.36
48015;BME280;33780;51.034;7.120;2022-08-02T03:57:06;101041.50;;;17.49;63.18
48015;BME280;33780;51.034;7.120;2022-08-02T03:59:42;101035.56;;;17.45;63.53
48015;BME280;33780;51.034;7.120;2022-08-02T04:02:09;101033.88;;;17.44;63.29
48015;BME280;33780;51.034;7.120;2022-08-02T04:04:34;101031.34;;;17.43;63.39
48015;BME280;33780;51.034;7.120;2022-08-02T04:06:59;101040.50;;;17.42;63.38
48015;BME280;33780;51.034;7.120;2022-08-02T04:09:25;101039.78;;;17.40;63.43
48015;BME280;33780;51.034;7.120;2022-08-02T04:11:50;101040.97;;;17.37;63.58
48015;BME280;33780;51.034;7.120;2022-08-02T04:14:16;101049.25;;;17.36;63.32
48015;BME280;33780;51.034;7.120;2022-08-02T04:16:58;101043.34;;;17.32;63.56
48015;BME280;33780;51.034;7.120;2022-08-02T04:19:46;101046.22;;;17.31;63.72
48015;BME280;33780;51.034;7.120;2022-08-02T04:22:18;101049.94;;;17.30;63.48
48015;BME280;33780;51.034;7.120;2022-08-02T04:24:47;101058.22;;;17.28;63.74
48015;BME280;33780;51.034;7.120;2022-08-02T04:27:14;101049.25;;;17.28;64.00
48015;BME280;33780;51.034;7.120;2022-08-02T04:29:40;101055.50;;;17.28;63.93
48015;BME280;33780;51.034;7.120;2022-08-02T04:32:05;101057.38;;;17.28;64.01
48015;BME280;33780;51.034;7.120;2022-08-02T04:34:32;101052.81;;;17.28;63.90
48015;BME280;33780;51.034;7.120;2022-08-02T04:36:58;101062.94;;;17.26;64.01
48015;BME280;33780;51.034;7.120;2022-08-02T04:39:23;101053.16;;;17.25;63.93
48015;BME280;33780;51.034;7.120;2022-08-02T04:41:49;101057.53;;;17.26;64.05
48015;BME280;33780;51.034;7.120;2022-08-02T04:44:14;101055.84;;;17.25;63.96
48015;BME280;33780;51.034;7.120;2022-08-02T04:46:41;101058.72;;;17.24;64.13
48015;BME280;33780;51.034;7.120;2022-08-02T04:49:07;101054.31;;;17.22;63.78
48015;BME280;33780;51.034;7.120;2022-08-02T04:51:36;101058.88;;;17.22;64.38
48015;BME280;33780;51.034;7.120;2022-08-02T04:54:03;101060.72;;;17.21;64.23
48015;BME280;33780;51.034;7.120;2022-08-02T04:56:28;101059.88;;;17.21;64.41
48015;BME280;33780;51.034;7.120;2022-08-02T04:58:53;101063.44;;;17.21;64.41
48015;BME280;33780;51.034;7.120;2022-08-02T05:01:19;101059.03;;;17.20;64.69
48015;BME280;33780;51.034;7.120;2022-08-02T05:03:44;101056.50;;;17.19;64.77
48015;BME280;33780;51.034;7.120;2022-08-02T05:06:09;101056.66;;;17.17;64.86
48015;BME280;33780;51.034;7.120;2022-08-02T05:08:35;101049.41;;;17.18;64.86
48015;BME280;33780;51.034;7.120;2022-08-02T05:11:00;101050.06;;;17.20;64.88
48015;BME280;33780;51.034;7.120;2022-08-02T05:13:25;101061.75;;;17.20;65.09
48015;BME280;33780;51.034;7.120;2022-08-02T05:15:51;101056.34;;;17.20;65.29
48015;BME280;33780;51.034;7.120;2022-08-02T05:18:16;101058.03;;;17.21;65.26
48015;BME280;33780;51.034;7.120;2022-08-02T05:20:42;101062.28;;;17.24;65.69
48015;BME280;33780;51.034;7.120;2022-08-02T05:23:07;101061.25;;;17.25;65.35
48015;BME280;33780;51.034;7.120;2022-08-02T05:25:33;101061.09;;;17.27;65.42
48015;BME280;33780;51.034;7.120;2022-08-02T05:27:58;101062.63;;;17.29;65.72
48015;BME280;33780;51.034;7.120;2022-08-02T05:30:23;101067.00;;;17.30;65.63
48015;BME280;33780;51.034;7.120;2022-08-02T05:32:49;101056.69;;;17.34;65.67
48015;BME280;33780;51.034;7.120;2022-08-02T05:35:22;101052.81;;;17.36;66.05
48015;BME280;33780;51.034;7.120;2022-08-02T05:37:50;101048.91;;;17.39;65.64
48015;BME280;33780;51.034;7.120;2022-08-02T05:40:16;101053.00;;;17.43;65.96
48015;BME280;33780;51.034;7.120;2022-08-02T05:42:42;101056.38;;;17.45;66.06
48015;BME280;33780;51.034;7.120;2022-08-02T05:45:08;101065.84;;;17.49;66.21
48015;BME280;33780;51.034;7.120;2022-08-02T05:47:33;101064.50;;;17.53;66.54
48015;BME280;33780;51.034;7.120;2022-08-02T05:49:59;101060.41;;;17.57;66.55
48015;BME280;33780;51.034;7.120;2022-08-02T05:52:26;101052.84;;;17.61;66.53
48015;BME280;33780;51.034;7.120;2022-08-02T05:55:07;101056.38;;;17.61;66.52
48015;BME280;33780;51.034;7.120;2022-08-02T06:00:30;101070.09;;;17.68;66.80
48015;BME280;33780;51.034;7.120;2022-08-02T06:05:39;101075.50;;;17.76;67.00
48015;BME280;33780;51.034;7.120;2022-08-02T06:08:06;101069.78;;;17.79;67.55
48015;BME280;33780;51.034;7.120;2022-08-02T06:10:37;101065.72;;;17.83;67.54
48015;BME280;33780;51.034;7.120;2022-08-02T06:13:12;101068.91;;;17.87;67.49
48015;BME280;33780;51.034;7.120;2022-08-02T06:15:39;101065.69;;;17.91;67.79
48015;BME280;33780;51.034;7.120;2022-08-02T06:18:06;101067.03;;;17.95;67.93
48015;BME280;33780;51.034;7.120;2022-08-02T06:20:41;101071.97;;;18.00;67.86
48015;BME280;33780;51.034;7.120;2022-08-02T06:23:07;101065.84;;;18.06;68.20
48015;BME280;33780;51.034;7.120;2022-08-02T06:25:36;101059.06;;;18.10;67.87
48015;BME280;33780;51.034;7.120;2022-08-02T06:28:13;101058.56;;;18.15;68.30
48015;BME280;33780;51.034;7.120;2022-08-02T06:30:55;101054.47;;;18.19;68.61
48015;BME280;33780;51.034;7.120;2022-08-02T06:33:41;101058.53;;;18.23;68.92
48015;BME280;33780;51.034;7.120;2022-08-02T06:39:45;101047.50;;;18.32;69.21
48015;BME280;33780;51.034;7.120;2022-08-02T06:42:14;101048.50;;;18.39;69.29
48015;BME280;33780;51.034;7.120;2022-08-02T06:44:59;101046.09;;;18.45;69.07
48015;BME280;33780;51.034;7.120;2022-08-02T06:47:51;101040.00;;;18.51;69.09
48015;BME280;33780;51.034;7.120;2022-08-02T06:50:29;101042.00;;;18.57;69.29
48015;BME280;33780;51.034;7.120;2022-08-02T06:53:01;101036.72;;;18.63;69.25
48015;BME280;33780;51.034;7.120;2022-08-02T06:55:26;101043.34;;;18.69;69.35
48015;BME280;33780;51.034;7.120;2022-08-02T06:58:04;101040.75;;;18.76;69.22
48015;BME280;33780;51.034;7.120;2022-08-02T07:00:29;101040.88;;;18.82;69.60
48015;BME280;33780;51.034;7.120;2022-08-02T07:02:56;101037.47;;;18.88;69.66
48015;BME280;33780;51.034;7.120;2022-08-02T07:05:24;101043.84;;;18.95;70.19
48015;BME280;33780;51.034;7.120;2022-08-02T07:07:53;101052.31;;;19.00;69.84
48015;BME280;33780;51.034;7.120;2022-08-02T07:10:25;101045.16;;;19.08;69.50
48015;BME280;33780;51.034;7.120;2022-08-02T07:12:50;101051.72;;;19.13;69.84
48015;BME280;33780;51.034;7.120;2022-08-02T07:15:23;101056.41;;;19.19;70.16
48015;BME280;33780;51.034;7.120;2022-08-02T07:17:52;101053.00;;;19.25;70.13
48015;BME280;33780;51.034;7.120;2022-08-02T07:20:18;101041.59;;;19.30;70.20
48015;BME280;33780;51.034;7.120;2022-08-02T07:22:43;101046.97;;;19.38;70.52
48015;BME280;33780;51.034;7.120;2022-08-02T07:25:18;101042.88;;;19.42;70.00
48015;BME280;33780;51.034;7.120;2022-08-02T07:27:44;101043.00;;;19.49;70.02
48015;BME280;33780;51.034;7.120;2022-08-02T07:30:09;101045.00;;;19.55;70.28
48015;BME280;33780;51.034;7.120;2022-08-02T07:32:35;101042.59;;;19.60;70.03
48015;BME280;33780;51.034;7.120;2022-08-02T07:35:00;101039.16;;;19.66;69.68
48015;BME280;33780;51.034;7.120;2022-08-02T07:37:29;101035.69;;;19.72;69.64
48015;BME280;33780;51.034;7.120;2022-08-02T07:39:54;101033.94;;;19.79;69.46
48015;BME280;33780;51.034;7.120;2022-08-02T07:42:20;101035.06;;;19.85;69.04
48015;BME280;33780;51.034;7.120;2022-08-02T07:45:03;101035.84;;;19.94;68.60
48015;BME280;33780;51.034;7.120;2022-08-02T07:47:28;101040.53;;;20.00;69.03
48015;BME280;33780;51.034;7.120;2022-08-02T07:49:54;101039.13;;;20.04;68.81
48015;BME280;33780;51.034;7.120;2022-08-02T07:52:19;101041.94;;;20.10;68.30
48015;BME280;33780;51.034;7.120;2022-08-02T07:54:45;101031.19;;;20.17;67.98
48015;BME280;33780;51.034;7.120;2022-08-02T07:57:11;101027.50;;;20.25;67.73
48015;BME280;33780;51.034;7.120;2022-08-02T07:59:45;101026.59;;;20.32;67.70
48015;BME280;33780;51.034;7.120;2022-08-02T08:02:12;101026.47;;;20.40;67.23
48015;BME280;33780;51.034;7.120;2022-08-02T08:04:39;101033.75;;;20.48;66.99
48015;BME280;33780;51.034;7.120;2022-08-02T08:07:04;101023.97;;;20.54;66.32
48015;BME280;33780;51.034;7.120;2022-08-02T08:09:30;101027.63;;;20.61;65.71
48015;BME280;33780;51.034;7.120;2022-08-02T08:11:55;101015.81;;;20.68;65.62
48015;BME280;33780;51.034;7.120;2022-08-02T08:14:21;101017.94;;;20.73;65.12
48015;BME280;33780;51.034;7.120;2022-08-02T08:16:46;101010.03;;;20.78;62.47
48015;BME280;33780;51.034;7.120;2022-08-02T08:19:11;101017.91;;;20.88;62.80
48015;BME280;33780;51.034;7.120;2022-08-02T08:21:38;101011.69;;;20.94;62.88
48015;BME280;33780;51.034;7.120;2022-08-02T08:24:04;101010.91;;;21.00;62.45
48015;BME280;33780;51.034;7.120;2022-08-02T08:26:29;101013.94;;;21.05;62.33
48015;BME280;33780;51.034;7.120;2022-08-02T08:28:54;101006.84;;;21.10;61.42
48015;BME280;33780;51.034;7.120;2022-08-02T08:31:20;101006.91;;;21.17;61.68
48015;BME280;33780;51.034;7.120;2022-08-02T08:33:45;101020.59;;;21.24;61.11
48015;BME280;33780;51.034;7.120;2022-08-02T08:36:11;101012.53;;;21.30;61.27
48015;BME280;33780;51.034;7.120;2022-08-02T08:38:36;101004.25;;;21.38;60.61
48015;BME280;33780;51.034;7.120;2022-08-02T08:41:02;101005.97;;;21.46;60.33
48015;BME280;33780;51.034;7.120;2022-08-02T08:43:27;101004.81;;;21.55;60.07
48015;BME280;33780;51.034;7.120;2022-08-02T08:45:52;100999.41;;;21.62;59.60
48015;BME280;33780;51.034;7.120;2022-08-02T08:48:18;101000.09;;;21.70;59.33
48015;BME280;33780;51.034;7.120;2022-08-02T08:50:54;100992.00;;;21.77;58.78
48015;BME280;33780;51.034;7.120;2022-08-02T08:53:23;101000.84;;;21.86;58.76
48015;BME280;33780;51.034;7.120;2022-08-02T08:55:51;100987.28;;;21.92;58.57
48015;BME280;33780;51.034;7.120;2022-08-02T08:58:18;100986.47;;;21.98;58.17
48015;BME280;33780;51.034;7.120;2022-08-02T09:00:43;100991.16;;;22.05;58.89
48015;BME280;33780;51.034;7.120;2022-08-02T09:03:10;100992.91;;;22.12;58.42
48015;BME280;33780;51.034;7.120;2022-08-02T09:05:37;100989.16;;;22.20;58.33
48015;BME280;33780;51.034;7.120;2022-08-02T09:08:04;100992.09;;;22.25;58.49
48015;BME280;33780;51.034;7.120;2022-08-02T09:10:42;100997.81;;;22.30;58.29
48015;BME280;33780;51.034;7.120;2022-08-02T09:13:17;100983.38;;;22.36;58.12
48015;BME280;33780;51.034;7.120;2022-08-02T09:15:45;100988.00;;;22.42;57.96
48015;BME280;33780;51.034;7.120;2022-08-02T09:18:16;100975.66;;;22.46;58.46
48015;BME280;33780;51.034;7.120;2022-08-02T09:20:56;100980.94;;;22.54;58.27
48015;BME280;33780;51.034;7.120;2022-08-02T09:23:23;100975.91;;;22.58;57.27
48015;BME280;33780;51.034;7.120;2022-08-02T09:26:00;100970.69;;;22.63;58.17
48015;BME280;33780;51.034;7.120;2022-08-02T09:28:27;100968.38;;;22.67;57.46
48015;BME280;33780;51.034;7.120;2022-08-02T09:31:15;100973.84;;;22.73;56.88
48015;BME280;33780;51.034;7.120;2022-08-02T09:33:55;100966.94;;;22.77;57.13
48015;BME280;33780;51.034;7.120;2022-08-02T09:36:22;100967.00;;;22.84;57.12
48015;BME280;33780;51.034;7.120;2022-08-02T09:38:59;100970.78;;;22.89;56.81
48015;BME280;33780;51.034;7.120;2022-08-02T09:41:33;100968.91;;;22.97;57.37
48015;BME280;33780;51.034;7.120;2022-08-02T09:44:00;100966.22;;;23.03;56.68
48015;BME280;33780;51.034;7.120;2022-08-02T09:46:28;100957.19;;;23.09;57.03
48015;BME280;33780;51.034;7.120;2022-08-02T09:49:11;100962.88;;;23.21;57.02
48015;BME280;33780;51.034;7.120;2022-08-02T09:51:38;100968.97;;;23.30;56.47
48015;BME280;33780;51.034;7.120;2022-08-02T09:54:09;100958.91;;;23.37;55.85
48015;BME280;33780;51.034;7.120;2022-08-02T09:56:47;100964.34;;;23.43;56.13
48015;BME280;33780;51.034;7.120;2022-08-02T10:02:22;100963.75;;;23.61;54.78
48015;BME280;33780;51.034;7.120;2022-08-02T10:04:54;100964.56;;;23.68;54.68
48015;BME280;33780;51.034;7.120;2022-08-02T10:07:21;100939.97;;;23.75;54.69
48015;BME280;33780;51.034;7.120;2022-08-02T10:09:47;100955.94;;;23.85;54.66
48015;BME280;33780;51.034;7.120;2022-08-02T10:12:15;100951.94;;;23.94;54.71
48015;BME280;33780;51.034;7.120;2022-08-02T10:14:54;100948.53;;;24.05;54.36
48015;BME280;33780;51.034;7.120;2022-08-02T10:17:20;100945.78;;;24.11;53.97
48015;BME280;33780;51.034;7.120;2022-08-02T10:19:45;100944.25;;;24.22;54.06
48015;BME280;33780;51.034;7.120;2022-08-02T10:22:14;100937.94;;;24.35;52.98
48015;BME280;33780;51.034;7.120;2022-08-02T10:24:40;100931.78;;;24.46;52.15
48015;BME280;33780;51.034;7.120;2022-08-02T10:30:30;100921.97;;;24.70;52.99
48015;BME280;33780;51.034;7.120;2022-08-02T10:32:58;100921.94;;;24.77;53.39
48015;BME280;33780;51.034;7.120;2022-08-02T10:35:24;100924.88;;;24.82;53.00
48015;BME280;33780;51.034;7.120;2022-08-02T10:37:53;100918.94;;;24.85;52.72
48015;BME280;33780;51.034;7.120;2022-08-02T10:40:26;100919.34;;;24.88;52.70
48015;BME280;33780;51.034;7.120;2022-08-02T10:46:30;100912.97;;;25.01;51.74
48015;BME280;33780;51.034;7.120;2022-08-02T10:49:07;100907.03;;;25.04;51.82
48015;BME280;33780;51.034;7.120;2022-08-02T10:54:22;100914.19;;;25.05;50.72
48015;BME280;33780;51.034;7.120;2022-08-02T10:56:49;100907.81;;;25.11;49.98
48015;BME280;33780;51.034;7.120;2022-08-02T10:59:32;100907.94;;;25.23;50.82
48015;BME280;33780;51.034;7.120;2022-08-02T11:02:00;100904.53;;;25.27;50.19
48015;BME280;33780;51.034;7.120;2022-08-02T11:07:11;100905.97;;;25.30;49.33
48015;BME280;33780;51.034;7.120;2022-08-02T11:09:39;100904.91;;;25.31;49.46
48015;BME280;33780;51.034;7.120;2022-08-02T11:12:12;100899.66;;;25.29;49.39
48015;BME280;33780;51.034;7.120;2022-08-02T11:14:40;100904.72;;;25.33;49.49
48015;BME280;33780;51.034;7.120;2022-08-02T11:17:11;100904.41;;;25.41;49.36
48015;BME280;33780;51.034;7.120;2022-08-02T11:22:36;100891.34;;;25.61;48.50
48015;BME280;33780;51.034;7.120;2022-08-02T11:27:56;100893.31;;;25.79;48.53
48015;BME280;33780;51.034;7.120;2022-08-02T11:30:24;100886.25;;;25.89;48.57
48015;BME280;33780;51.034;7.120;2022-08-02T11:32:54;100886.53;;;26.00;48.33
48015;BME280;33780;51.034;7.120;2022-08-02T11:35:21;100873.97;;;26.10;47.91
48015;BME280;33780;51.034;7.120;2022-08-02T11:37:47;100886.28;;;26.19;45.88
48015;BME280;33780;51.034;7.120;2022-08-02T11:46:29;100890.91;;;26.56;44.57
48015;BME280;33780;51.034;7.120;2022-08-02T11:49:22;100892.03;;;26.66;45.11
48015;BME280;33780;51.034;7.120;2022-08-02T11:52:11;100879.66;;;26.75;44.51
48015;BME280;33780;51.034;7.120;2022-08-02T11:54:45;100877.88;;;26.81;44.07
48015;BME280;33780;51.034;7.120;2022-08-02T11:57:18;100888.38;;;26.84;44.23
48015;BME280;33780;51.034;7.120;2022-08-02T12:03:05;100879.66;;;26.87;44.33
48015;BME280;33780;51.034;7.120;2022-08-02T12:05:34;100879.44;;;26.89;43.69
48015;BME280;33780;51.034;7.120;2022-08-02T12:08:05;100875.38;;;26.91;43.39
48015;BME280;33780;51.034;7.120;2022-08-02T12:11:05;100870.03;;;26.96;44.81
48015;BME280;33780;51.034;7.120;2022-08-02T12:14:11;100866.34;;;27.02;44.74
48015;BME280;33780;51.034;7.120;2022-08-02T12:16:42;100866.94;;;27.04;44.12
48015;BME280;33780;51.034;7.120;2022-08-02T12:19:26;100865.63;;;27.07;44.17
48015;BME280;33780;51.034;7.120;2022-08-02T12:25:28;100866.63;;;27.13;43.61
48015;BME280;33780;51.034;7.120;2022-08-02T12:28:15;100868.16;;;27.20;44.48
48015;BME280;33780;51.034;7.120;2022-08-02T12:30:51;100862.53;;;27.27;41.97
48015;BME280;33780;51.034;7.120;2022-08-02T12:33:18;100868.63;;;27.29;42.13
48015;BME280;33780;51.034;7.120;2022-08-02T12:35:43;100862.69;;;27.32;42.24
48015;BME280;33780;51.034;7.120;2022-08-02T12:38:10;100870.09;;;27.31;42.76
48015;BME280;33780;51.034;7.120;2022-08-02T12:40:36;100859.56;;;27.28;43.22
48015;BME280;33780;51.034;7.120;2022-08-02T12:43:04;100860.88;;;27.26;43.38
48015;BME280;33780;51.034;7.120;2022-08-02T12:45:32;100862.19;;;27.23;43.45
48015;BME280;33780;51.034;7.120;2022-08-02T12:47:59;100865.78;;;27.24;43.71
48015;BME280;33780;51.034;7.120;2022-08-02T12:50:26;100857.88;;;27.27;44.20
48015;BME280;33780;51.034;7.120;2022-08-02T12:53:25;100855.38;;;27.37;44.04
48015;BME280;33780;51.034;7.120;2022-08-02T12:55:56;100859.09;;;27.43;44.05
48015;BME280;33780;51.034;7.120;2022-08-02T12:58:22;100863.06;;;27.47;43.67
48015;BME280;33780;51.034;7.120;2022-08-02T13:00:52;100851.44;;;27.57;43.50
48015;BME280;33780;51.034;7.120;2022-08-02T13:03:18;100849.78;;;27.67;43.83
48015;BME280;33780;51.034;7.120;2022-08-02T13:06:03;100857.16;;;27.79;42.84
48015;BME280;33780;51.034;7.120;2022-08-02T13:08:55;100847.59;;;27.81;41.82
48015;BME280;33780;51.034;7.120;2022-08-02T13:11:25;100844.75;;;27.76;40.64
48015;BME280;33780;51.034;7.120;2022-08-02T13:14:03;100841.66;;;27.73;41.80
48015;BME280;33780;51.034;7.120;2022-08-02T13:16:29;100835.31;;;27.72;42.41
48015;BME280;33780;51.034;7.120;2022-08-02T13:18:55;100837.56;;;27.75;42.75
48015;BME280;33780;51.034;7.120;2022-08-02T13:21:20;100834.34;;;27.78;42.43
48015;BME280;33780;51.034;7.120;2022-08-02T13:23:46;100837.81;;;27.85;42.41
48015;BME280;33780;51.034;7.120;2022-08-02T13:26:11;100837.66;;;27.92;41.81
48015;BME280;33780;51.034;7.120;2022-08-02T13:28:39;100837.25;;;28.00;41.15
48015;BME280;33780;51.034;7.120;2022-08-02T13:31:07;100839.63;;;28.08;41.25
48015;BME280;33780;51.034;7.120;2022-08-02T13:33:32;100832.06;;;28.15;41.34
48015;BME280;33780;51.034;7.120;2022-08-02T13:35:57;100831.22;;;28.15;40.46
48015;BME280;33780;51.034;7.120;2022-08-02T13:38:23;100830.72;;;28.18;41.34
48015;BME280;33780;51.034;7.120;2022-08-02T13:40:48;100825.00;;;28.19;41.36
48015;BME280;33780;51.034;7.120;2022-08-02T13:43:33;100815.44;;;28.22;41.51
48015;BME280;33780;51.034;7.120;2022-08-02T13:45:58;100805.00;;;28.24;41.70
48015;BME280;33780;51.034;7.120;2022-08-02T13:48:23;100816.13;;;28.29;41.25
48015;BME280;33780;51.034;7.120;2022-08-02T13:50:49;100806.53;;;28.32;41.69
48015;BME280;33780;51.034;7.120;2022-08-02T13:53:14;100807.72;;;28.36;41.55
48015;BME280;33780;51.034;7.120;2022-08-02T13:55:39;100810.00;;;28.39;41.03